Time,TemperatureF,DewpointF,PressureIn,WindDirection,WindDirectionDegrees,WindSpeedMPH,WindSpeedGustMPH,Humidity,HourlyPrecipIn,Conditions,Clouds,dailyrainin,SolarRadiationWatts/m^2,SoftwareType,DateUTC
2014-07-23 00:01:00,65.7,36.5,30.38,WNW,292,6.7,6.7,34,0.00,CLR,FEW,0.00,0.0,WeatherDisplay:10.37,2014-07-23 07:01:00,
2014-07-23 00:06:00,66.0,36.8,30.38,West,270,3.1,3.1,34,0.00,CLR,FEW,0.00,0.0,WeatherDisplay:10.37,2014-07-23 07:06:00,
2014-07-23 00:11:00,65.8,36.7,30.38,West,270,1.6,0.0,34,0.00,CLR,FEW,0.00,0.0,WeatherDisplay:10.37,2014-07-23 07:11:00,
2014-07-23 00:16:00,65.7,35.8,30.38,West,270,5.8,5.8,33,0.00,CLR,FEW,0.00,0.0,WeatherDisplay:10.37,2014-07-23 07:16:00,
2014-07-23 00:21:00,65.7,35.8,30.38,WSW,248,2.3,2.3,33,0.00,CLR,FEW,0.00,0.0,WeatherDisplay:10.37,2014-07-23 07:21:00,
2014-07-23 00:26:00,65.3,35.4,30.38,WNW,292,2.3,2.3,33,0.00,CLR,FEW,0.00,0.0,WeatherDisplay:10.37,2014-07-23 07:26:00,
2014-07-23 00:31:00,65.3,35.4,30.38,SW,225,2.3,2.3,33,0.00,CLR,FEW,0.00,0.0,WeatherDisplay:10.37,2014-07-23 07:31:00,
2014-07-23 00:36:00,64.8,35.0,30.38,WSW,248,2.3,2.3,33,0.00,CLR,FEW,0.00,0.0,WeatherDisplay:10.37,2014-07-23 07:36:00,
2014-07-23 00:41:00,64.2,35.2,30.38,WNW,292,2.0,2.0,34,0.00,CLR,FEW,0.00,0.0,WeatherDisplay:10.37,2014-07-23 07:41:00,
2014-07-23 00:46:00,64.0,35.1,30.38,WSW,248,0.0,0.0,34,0.00,CLR,FEW,0.00,0.0,WeatherDisplay:10.37,2014-07-23 07:46:00,
2014-07-23 00:51:00,63.7,34.8,30.38,SW,225,2.3,2.3,34,0.00,CLR,FEW,0.00,0.0,WeatherDisplay:10.37,2014-07-23 07:51:00,
2014-07-23 00:56:00,63.7,34.8,30.38,WSW,248,3.1,3.1,34,0.00,CLR,FEW,0.00,0.0,WeatherDisplay:10.37,2014-07-23 07:56:00,
2014-07-23 01:01:00,63.9,34.9,30.38,WSW,248,2.3,2.3,34,0.00,CLR,FEW,0.00,0.0,WeatherDisplay:10.37,2014-07-23 08:01:00,
2014-07-23 01:06:00,63.7,34.8,30.38,West,270,2.6,2.6,34,0.00,CLR,FEW,0.00,0.0,WeatherDisplay:10.37,2014-07-23 08:06:00,
2014-07-23 01:11:00,63.9,34.9,30.38,SW,225,1.6,1.6,34,0.00,CLR,FEW,0.00,0.0,WeatherDisplay:10.37,2014-07-23 08:11:00,
2014-07-23 01:16:00,63.5,33.9,30.38,WSW,248,2.3,2.3,33,0.00,CLR,FEW,0.00,0.0,WeatherDisplay:10.37,2014-07-23 08:16:00,
2014-07-23 01:21:00,63.3,33.7,30.38,WNW,292,2.3,0.0,33,0.00,CLR,FEW,0.00,0.0,WeatherDisplay:10.37,2014-07-23 08:21:00,
2014-07-23 01:26:00,63.1,33.5,30.38,SSW,202,2.3,2.9,33,0.00,CLR,FEW,0.00,0.0,WeatherDisplay:10.37,2014-07-23 08:26:00,
2014-07-23 01:31:00,62.8,33.2,30.38,WNW,292,2.4,2.4,33,0.00,CLR,FEW,0.00,0.0,WeatherDisplay:10.37,2014-07-23 08:31:00,
2014-07-23 01:36:00,62.2,32.0,30.38,WNW,292,2.3,2.3,32,0.00,CLR,FEW,0.00,0.0,WeatherDisplay:10.37,2014-07-23 08:36:00,
2014-07-23 01:41:00,62.2,32.0,30.38,WNW,292,4.6,4.6,32,0.00,CLR,FEW,0.00,0.0,WeatherDisplay:10.37,2014-07-23 08:41:00,
2014-07-23 01:46:00,62.1,31.8,30.38,WNW,292,2.4,0.0,32,0.00,CLR,FEW,0.00,0.0,WeatherDisplay:10.37,2014-07-23 08:46:00,
2014-07-23 01:51:00,61.7,31.5,30.38,West,270,2.3,2.3,32,0.00,CLR,FEW,0.00,0.0,WeatherDisplay:10.37,2014-07-23 08:51:00,
2014-07-23 01:56:00,61.5,31.4,30.38,WNW,292,3.5,3.5,32,0.00,CLR,FEW,0.00,0.0,WeatherDisplay:10.37,2014-07-23 08:56:00,
2014-07-23 02:01:00,61.2,31.8,30.38,South,180,2.3,2.3,33,0.00,CLR,FEW,0.00,0.0,WeatherDisplay:10.37,2014-07-23 09:01:00,
2014-07-23 02:06:00,60.8,32.2,30.38,West,270,2.3,2.3,34,0.00,CLR,FEW,0.00,0.0,WeatherDisplay:10.37,2014-07-23 09:06:00,
2014-07-23 02:11:00,60.6,32.1,30.38,West,270,2.3,2.3,34,0.00,CLR,FEW,0.00,0.0,WeatherDisplay:10.37,2014-07-23 09:11:00,
2014-07-23 02:16:00,60.6,32.1,30.38,West,270,1.2,1.2,34,0.00,CLR,FEW,0.00,0.0,WeatherDisplay:10.37,2014-07-23 09:16:00,
2014-07-23 02:21:00,60.4,31.9,30.38,WSW,248,1.6,0.0,34,0.00,CLR,FEW,0.00,0.0,WeatherDisplay:10.37,2014-07-23 09:21:00,
2014-07-23 02:26:00,60.4,31.9,30.38,SSE,158,2.3,2.3,34,0.00,CLR,FEW,0.00,0.0,WeatherDisplay:10.37,2014-07-23 09:26:00,
2014-07-23 02:31:00,60.4,31.9,30.38,SSW,202,2.3,2.3,34,0.00,CLR,FEW,0.00,0.0,WeatherDisplay:10.37,2014-07-23 09:31:00,
2014-07-23 02:36:00,60.6,32.1,30.38,SW,225,3.5,3.5,34,0.00,CLR,FEW,0.00,0.0,WeatherDisplay:10.37,2014-07-23 09:36:00,
2014-07-23 02:41:00,61.3,30.4,30.38,SSE,158,6.9,6.9,31,0.00,CLR,FEW,0.00,0.0,WeatherDisplay:10.37,2014-07-23 09:41:00,
2014-07-23 02:46:00,61.7,32.3,30.38,South,180,1.2,0.0,33,0.00,CLR,FEW,0.00,0.0,WeatherDisplay:10.37,2014-07-23 09:46:00,
2014-07-23 02:51:00,61.7,32.3,30.38,SSW,202,1.6,1.6,33,0.00,CLR,FEW,0.00,0.0,WeatherDisplay:10.37,2014-07-23 09:51:00,
2014-07-23 02:56:00,61.7,32.3,30.38,WSW,248,2.3,2.3,33,0.00,CLR,FEW,0.00,0.0,WeatherDisplay:10.37,2014-07-23 09:56:00,
2014-07-23 03:01:00,61.5,31.4,30.38,WSW,248,2.3,2.3,32,0.00,CLR,FEW,0.00,0.0,WeatherDisplay:10.37,2014-07-23 10:01:00,
2014-07-23 03:06:00,61.7,32.3,30.38,SSW,202,3.5,3.5,33,0.00,CLR,FEW,0.00,0.0,WeatherDisplay:10.37,2014-07-23 10:06:00,
2014-07-23 03:11:00,61.7,32.3,30.38,SSW,202,4.6,4.6,33,0.00,CLR,FEW,0.00,0.0,WeatherDisplay:10.37,2014-07-23 10:11:00,
2014-07-23 03:16:00,62.1,31.8,30.38,WSW,248,2.3,2.3,32,0.00,CLR,FEW,0.00,0.0,WeatherDisplay:10.37,2014-07-23 10:16:00,
2014-07-23 03:21:00,62.2,31.2,30.38,WNW,292,2.6,2.6,31,0.00,CLR,FEW,0.00,0.0,WeatherDisplay:10.37,2014-07-23 10:21:00,
2014-07-23 03:26:00,62.2,31.2,30.38,WSW,248,2.0,0.0,31,0.00,CLR,FEW,0.00,0.0,WeatherDisplay:10.37,2014-07-23 10:26:00,
2014-07-23 03:31:00,62.2,31.2,30.38,WNW,292,2.3,2.3,31,0.00,CLR,FEW,0.00,0.0,WeatherDisplay:10.37,2014-07-23 10:31:00,
2014-07-23 03:36:00,61.7,32.3,30.38,WNW,292,3.6,3.6,33,0.00,CLR,FEW,0.00,0.0,WeatherDisplay:10.37,2014-07-23 10:36:00,
2014-07-23 03:41:00,62.8,32.5,30.38,South,180,4.6,4.6,32,0.00,CLR,FEW,0.00,0.0,WeatherDisplay:10.37,2014-07-23 10:41:00,
2014-07-23 03:46:00,62.8,32.5,30.38,SSW,202,0.0,0.0,32,0.00,CLR,FEW,0.00,0.0,WeatherDisplay:10.37,2014-07-23 10:46:00,
2014-07-23 03:51:00,62.2,31.2,30.38,WSW,248,3.5,3.5,31,0.00,CLR,FEW,0.00,0.0,WeatherDisplay:10.37,2014-07-23 10:51:00,
2014-07-23 03:56:00,62.1,31.0,30.38,SSE,158,2.3,2.3,31,0.00,CLR,FEW,0.00,0.0,WeatherDisplay:10.37,2014-07-23 10:56:00,
2014-07-23 04:01:00,61.3,31.2,30.38,WSW,248,2.3,2.3,32,0.00,CLR,FEW,0.00,0.0,WeatherDisplay:10.37,2014-07-23 11:01:00,
2014-07-23 04:06:00,61.3,30.4,30.38,WNW,292,3.6,3.6,31,0.00,CLR,FEW,0.00,0.0,WeatherDisplay:10.37,2014-07-23 11:06:00,
2014-07-23 04:11:00,62.2,31.2,30.38,WSW,248,2.3,2.3,31,0.00,CLR,FEW,0.00,0.0,WeatherDisplay:10.37,2014-07-23 11:11:00,
2014-07-23 04:16:00,61.9,30.9,30.38,WNW,292,1.2,0.0,31,0.00,CLR,FEW,0.00,0.0,WeatherDisplay:10.37,2014-07-23 11:16:00,
2014-07-23 04:21:00,61.3,30.4,30.38,WNW,292,2.3,2.3,31,0.00,CLR,FEW,0.00,0.0,WeatherDisplay:10.37,2014-07-23 11:21:00,
2014-07-23 04:26:00,60.8,30.7,30.38,SSW,202,2.3,2.3,32,0.00,CLR,FEW,0.00,0.0,WeatherDisplay:10.37,2014-07-23 11:26:00,
2014-07-23 04:31:00,61.9,30.9,30.38,WSW,248,4.6,4.6,31,0.00,CLR,FEW,0.00,0.0,WeatherDisplay:10.37,2014-07-23 11:31:00,
2014-07-23 04:36:00,63.5,30.6,30.38,SSW,202,5.8,5.8,29,0.00,CLR,FEW,0.00,0.0,WeatherDisplay:10.37,2014-07-23 11:36:00,
2014-07-23 04:41:00,63.9,31.0,30.38,WNW,292,4.6,4.6,29,0.00,CLR,FEW,0.00,0.0,WeatherDisplay:10.37,2014-07-23 11:41:00,
2014-07-23 04:46:00,63.9,31.0,30.38,West,270,1.2,1.4,29,0.00,CLR,FEW,0.00,0.0,WeatherDisplay:10.37,2014-07-23 11:46:00,
2014-07-23 04:51:00,63.9,30.1,30.38,NNW,338,2.4,3.1,28,0.00,CLR,FEW,0.00,0.0,WeatherDisplay:10.37,2014-07-23 11:51:00,
2014-07-23 04:56:00,63.5,30.6,30.38,WSW,248,2.3,2.3,29,0.00,CLR,FEW,0.00,0.0,WeatherDisplay:10.37,2014-07-23 11:56:00,
2014-07-23 05:01:00,63.0,31.0,30.38,WNW,292,3.5,3.5,30,0.00,CLR,FEW,0.00,0.0,WeatherDisplay:10.37,2014-07-23 12:01:00,
2014-07-23 05:06:00,62.2,31.2,30.38,WSW,248,0.0,0.0,31,0.00,CLR,FEW,0.00,0.0,WeatherDisplay:10.37,2014-07-23 12:06:00,
2014-07-23 05:11:00,61.3,31.2,30.38,WSW,248,3.3,0.0,32,0.00,CLR,FEW,0.00,0.0,WeatherDisplay:10.37,2014-07-23 12:11:00,
2014-07-23 05:16:00,61.0,31.6,30.38,SSW,202,1.2,1.2,33,0.00,CLR,FEW,0.00,0.0,WeatherDisplay:10.37,2014-07-23 12:16:00,
2014-07-23 05:21:00,60.1,32.3,30.38,WNW,292,2.3,2.3,35,0.00,OVC,FEW,0.00,0.0,WeatherDisplay:10.37,2014-07-23 12:21:00,